sensor_id;sensor_type;location;lat;lon;timestamp;P1;durP1;ratioP1;P2;durP2;ratioP2
70169;SDS011;57543;45.442;9.212;2023-08-24T00:00:17;16.03;;;11.10;;
70169;SDS011;57543;45.442;9.212;2023-08-24T00:03:21;14.48;;;10.18;;
70169;SDS011;57543;45.442;9.212;2023-08-24T00:06:26;15.55;;;10.90;;
70169;SDS011;57543;45.442;9.212;2023-08-24T00:09:31;17.10;;;12.10;;
70169;SDS011;57543;45.442;9.212;2023-08-24T00:12:35;17.17;;;11.07;;
70169;SDS011;57543;45.442;9.212;2023-08-24T00:15:43;16.27;;;11.73;;
70169;SDS011;57543;45.442;9.212;2023-08-24T00:18:48;16.42;;;11.52;;
70169;SDS011;57543;45.442;9.212;2023-08-24T00:21:52;15.30;;;11.35;;
70169;SDS011;57543;45.442;9.212;2023-08-24T00:24:57;18.85;;;12.38;;
70169;SDS011;57543;45.442;9.212;2023-08-24T00:28:01;16.52;;;11.50;;
70169;SDS011;57543;45.442;9.212;2023-08-24T00:31:05;14.73;;;11.60;;
70169;SDS011;57543;45.442;9.212;2023-08-24T00:34:10;15.13;;;11.30;;
70169;SDS011;57543;45.442;9.212;2023-08-24T00:37:26;13.50;;;10.73;;
70169;SDS011;57543;45.442;9.212;2023-08-24T00:40:29;14.50;;;10.45;;
70169;SDS011;57543;45.442;9.212;2023-08-24T00:43:37;15.45;;;10.65;;
70169;SDS011;57543;45.442;9.212;2023-08-24T00:46:44;15.13;;;11.10;;
70169;SDS011;57543;45.442;9.212;2023-08-24T00:49:51;16.95;;;10.38;;
70169;SDS011;57543;45.442;9.212;2023-08-24T00:52:55;15.65;;;11.05;;
70169;SDS011;57543;45.442;9.212;2023-08-24T00:56:00;16.10;;;10.90;;
70169;SDS011;57543;45.442;9.212;2023-08-24T00:59:04;15.82;;;11.07;;
70169;SDS011;57543;45.442;9.212;2023-08-24T01:02:09;17.77;;;11.17;;
70169;SDS011;57543;45.442;9.212;2023-08-24T01:05:15;14.60;;;10.73;;
70169;SDS011;57543;45.442;9.212;2023-08-24T01:08:21;14.63;;;10.27;;
70169;SDS011;57543;45.442;9.212;2023-08-24T01:17:55;14.85;;;11.15;;
70169;SDS011;57543;45.442;9.212;2023-08-24T01:21:04;16.98;;;11.52;;
70169;SDS011;57543;45.442;9.212;2023-08-24T01:24:17;14.77;;;10.85;;
70169;SDS011;57543;45.442;9.212;2023-08-24T01:27:26;15.25;;;10.63;;
70169;SDS011;57543;45.442;9.212;2023-08-24T01:30:33;13.95;;;10.30;;
70169;SDS011;57543;45.442;9.212;2023-08-24T01:33:39;14.63;;;11.03;;
70169;SDS011;57543;45.442;9.212;2023-08-24T01:36:43;14.55;;;10.88;;
70169;SDS011;57543;45.442;9.212;2023-08-24T01:39:59;14.45;;;10.80;;
70169;SDS011;57543;45.442;9.212;2023-08-24T01:43:15;15.57;;;11.65;;
70169;SDS011;57543;45.442;9.212;2023-08-24T01:46:22;16.73;;;11.70;;
70169;SDS011;57543;45.442;9.212;2023-08-24T01:49:28;13.77;;;10.97;;
70169;SDS011;57543;45.442;9.212;2023-08-24T01:52:33;13.68;;;10.63;;
70169;SDS011;57543;45.442;9.212;2023-08-24T01:55:39;14.93;;;10.75;;
70169;SDS011;57543;45.442;9.212;2023-08-24T01:58:43;15.38;;;11.38;;
70169;SDS011;57543;45.442;9.212;2023-08-24T02:01:47;14.85;;;10.75;;
70169;SDS011;57543;45.442;9.212;2023-08-24T02:04:51;15.30;;;11.33;;
70169;SDS011;57543;45.442;9.212;2023-08-24T02:07:54;15.25;;;11.43;;
70169;SDS011;57543;45.442;9.212;2023-08-24T02:11:00;13.68;;;10.30;;
70169;SDS011;57543;45.442;9.212;2023-08-24T02:14:04;13.57;;;10.85;;
70169;SDS011;57543;45.442;9.212;2023-08-24T02:17:13;15.18;;;10.95;;
70169;SDS011;57543;45.442;9.212;2023-08-24T02:20:17;15.03;;;10.83;;
70169;SDS011;57543;45.442;9.212;2023-08-24T02:23:22;15.50;;;10.48;;
70169;SDS011;57543;45.442;9.212;2023-08-24T02:26:25;16.25;;;10.60;;
70169;SDS011;57543;45.442;9.212;2023-08-24T02:29:28;13.27;;;11.13;;
70169;SDS011;57543;45.442;9.212;2023-08-24T02:32:33;16.05;;;11.50;;
70169;SDS011;57543;45.442;9.212;2023-08-24T02:35:37;16.50;;;11.17;;
70169;SDS011;57543;45.442;9.212;2023-08-24T02:38:42;12.52;;;10.43;;
70169;SDS011;57543;45.442;9.212;2023-08-24T02:41:46;14.63;;;10.73;;
70169;SDS011;57543;45.442;9.212;2023-08-24T02:44:51;15.15;;;10.98;;
70169;SDS011;57543;45.442;9.212;2023-08-24T02:47:54;14.70;;;11.45;;
70169;SDS011;57543;45.442;9.212;2023-08-24T02:50:59;16.50;;;10.87;;
70169;SDS011;57543;45.442;9.212;2023-08-24T02:54:06;15.50;;;10.63;;
70169;SDS011;57543;45.442;9.212;2023-08-24T02:57:09;15.07;;;11.02;;
70169;SDS011;57543;45.442;9.212;2023-08-24T03:00:12;14.63;;;10.82;;
70169;SDS011;57543;45.442;9.212;2023-08-24T03:03:17;16.88;;;11.43;;
70169;SDS011;57543;45.442;9.212;2023-08-24T03:06:21;16.63;;;11.43;;
70169;SDS011;57543;45.442;9.212;2023-08-24T03:09:27;15.63;;;10.65;;
70169;SDS011;57543;45.442;9.212;2023-08-24T03:12:31;15.32;;;11.00;;
70169;SDS011;57543;45.442;9.212;2023-08-24T03:15:34;15.80;;;11.25;;
70169;SDS011;57543;45.442;9.212;2023-08-24T03:18:38;17.08;;;10.63;;
70169;SDS011;57543;45.442;9.212;2023-08-24T03:21:42;15.77;;;11.10;;
70169;SDS011;57543;45.442;9.212;2023-08-24T03:24:46;18.08;;;11.35;;
70169;SDS011;57543;45.442;9.212;2023-08-24T03:27:50;15.13;;;10.77;;
70169;SDS011;57543;45.442;9.212;2023-08-24T03:30:55;17.77;;;11.00;;
70169;SDS011;57543;45.442;9.212;2023-08-24T03:33:59;17.35;;;11.20;;
70169;SDS011;57543;45.442;9.212;2023-08-24T03:37:04;13.77;;;10.63;;
70169;SDS011;57543;45.442;9.212;2023-08-24T03:40:08;15.75;;;11.18;;
70169;SDS011;57543;45.442;9.212;2023-08-24T03:43:11;14.60;;;11.27;;
70169;SDS011;57543;45.442;9.212;2023-08-24T03:46:16;15.80;;;11.57;;
70169;SDS011;57543;45.442;9.212;2023-08-24T03:49:21;16.85;;;11.80;;
70169;SDS011;57543;45.442;9.212;2023-08-24T03:52:25;14.27;;;11.10;;
70169;SDS011;57543;45.442;9.212;2023-08-24T03:55:28;17.48;;;11.32;;
70169;SDS011;57543;45.442;9.212;2023-08-24T03:58:32;15.95;;;11.43;;
70169;SDS011;57543;45.442;9.212;2023-08-24T04:01:37;15.50;;;11.20;;
70169;SDS011;57543;45.442;9.212;2023-08-24T04:04:42;14.00;;;10.88;;
70169;SDS011;57543;45.442;9.212;2023-08-24T04:07:47;14.15;;;10.35;;
70169;SDS011;57543;45.442;9.212;2023-08-24T04:10:52;15.95;;;10.82;;
70169;SDS011;57543;45.442;9.212;2023-08-24T04:13:55;15.50;;;10.65;;
70169;SDS011;57543;45.442;9.212;2023-08-24T04:16:58;16.52;;;10.82;;
70169;SDS011;57543;45.442;9.212;2023-08-24T04:20:01;15.15;;;10.48;;
70169;SDS011;57543;45.442;9.212;2023-08-24T04:23:07;16.07;;;11.10;;
70169;SDS011;57543;45.442;9.212;2023-08-24T04:26:11;14.95;;;10.95;;
70169;SDS011;57543;45.442;9.212;2023-08-24T04:29:15;17.63;;;10.82;;
70169;SDS011;57543;45.442;9.212;2023-08-24T04:32:19;16.42;;;11.02;;
70169;SDS011;57543;45.442;9.212;2023-08-24T04:35:24;16.10;;;10.68;;
70169;SDS011;57543;45.442;9.212;2023-08-24T04:38:29;15.45;;;10.40;;
70169;SDS011;57543;45.442;9.212;2023-08-24T04:41:32;14.20;;;10.20;;
70169;SDS011;57543;45.442;9.212;2023-08-24T04:44:36;15.98;;;10.80;;
70169;SDS011;57543;45.442;9.212;2023-08-24T04:47:40;17.60;;;11.60;;
70169;SDS011;57543;45.442;9.212;2023-08-24T04:50:44;14.70;;;10.27;;
70169;SDS011;57543;45.442;9.212;2023-08-24T04:53:48;14.00;;;10.38;;
70169;SDS011;57543;45.442;9.212;2023-08-24T04:56:52;15.57;;;10.38;;
70169;SDS011;57543;45.442;9.212;2023-08-24T04:59:56;13.68;;;10.65;;
70169;SDS011;57543;45.442;9.212;2023-08-24T05:02:59;13.02;;;10.63;;
70169;SDS011;57543;45.442;9.212;2023-08-24T05:06:03;15.13;;;10.68;;
70169;SDS011;57543;45.442;9.212;2023-08-24T05:09:07;16.42;;;10.43;;
70169;SDS011;57543;45.442;9.212;2023-08-24T05:12:11;16.45;;;11.55;;
70169;SDS011;57543;45.442;9.212;2023-08-24T05:15:15;14.60;;;11.35;;
70169;SDS011;57543;45.442;9.212;2023-08-24T05:18:19;16.08;;;11.40;;
70169;SDS011;57543;45.442;9.212;2023-08-24T05:21:22;17.02;;;11.77;;
70169;SDS011;57543;45.442;9.212;2023-08-24T05:24:25;14.60;;;11.20;;
70169;SDS011;57543;45.442;9.212;2023-08-24T05:27:29;17.33;;;11.82;;
70169;SDS011;57543;45.442;9.212;2023-08-24T05:30:33;16.27;;;11.30;;
70169;SDS011;57543;45.442;9.212;2023-08-24T05:33:36;14.75;;;11.18;;
70169;SDS011;57543;45.442;9.212;2023-08-24T05:36:39;20.85;;;11.90;;
70169;SDS011;57543;45.442;9.212;2023-08-24T05:39:43;18.27;;;11.87;;
70169;SDS011;57543;45.442;9.212;2023-08-24T05:42:47;20.63;;;12.18;;
70169;SDS011;57543;45.442;9.212;2023-08-24T05:45:51;17.15;;;12.07;;
70169;SDS011;57543;45.442;9.212;2023-08-24T05:48:55;19.02;;;11.45;;
70169;SDS011;57543;45.442;9.212;2023-08-24T05:52:01;19.30;;;12.00;;
70169;SDS011;57543;45.442;9.212;2023-08-24T05:55:05;16.67;;;12.33;;
70169;SDS011;57543;45.442;9.212;2023-08-24T05:58:09;19.83;;;12.93;;
70169;SDS011;57543;45.442;9.212;2023-08-24T06:01:12;22.58;;;13.68;;
70169;SDS011;57543;45.442;9.212;2023-08-24T06:04:15;27.95;;;13.90;;
70169;SDS011;57543;45.442;9.212;2023-08-24T06:07:22;20.83;;;13.15;;
70169;SDS011;57543;45.442;9.212;2023-08-24T06:10:26;26.73;;;14.37;;
70169;SDS011;57543;45.442;9.212;2023-08-24T06:13:30;21.08;;;14.30;;
70169;SDS011;57543;45.442;9.212;2023-08-24T06:16:34;22.60;;;13.70;;
70169;SDS011;57543;45.442;9.212;2023-08-24T06:19:37;33.95;;;17.30;;
70169;SDS011;57543;45.442;9.212;2023-08-24T06:22:40;21.63;;;13.63;;
70169;SDS011;57543;45.442;9.212;2023-08-24T06:25:44;26.63;;;13.77;;
70169;SDS011;57543;45.442;9.212;2023-08-24T06:28:47;27.48;;;14.35;;
70169;SDS011;57543;45.442;9.212;2023-08-24T06:31:51;25.20;;;13.82;;
70169;SDS011;57543;45.442;9.212;2023-08-24T06:34:54;36.45;;;15.45;;
70169;SDS011;57543;45.442;9.212;2023-08-24T06:37:59;30.05;;;16.52;;
70169;SDS011;57543;45.442;9.212;2023-08-24T06:41:02;20.70;;;14.00;;
70169;SDS011;57543;45.442;9.212;2023-08-24T06:44:08;19.98;;;11.95;;
70169;SDS011;57543;45.442;9.212;2023-08-24T06:47:16;18.67;;;12.20;;
70169;SDS011;57543;45.442;9.212;2023-08-24T06:50:20;19.23;;;12.90;;
70169;SDS011;57543;45.442;9.212;2023-08-24T06:53:24;19.63;;;13.88;;
70169;SDS011;57543;45.442;9.212;2023-08-24T06:56:28;16.13;;;12.45;;
70169;SDS011;57543;45.442;9.212;2023-08-24T06:59:31;25.00;;;13.23;;
70169;SDS011;57543;45.442;9.212;2023-08-24T07:02:35;20.95;;;13.25;;
70169;SDS011;57543;45.442;9.212;2023-08-24T07:05:40;19.70;;;12.93;;
70169;SDS011;57543;45.442;9.212;2023-08-24T07:08:46;16.27;;;12.32;;
70169;SDS011;57543;45.442;9.212;2023-08-24T07:11:49;16.13;;;12.10;;
70169;SDS011;57543;45.442;9.212;2023-08-24T07:14:52;25.58;;;13.43;;
70169;SDS011;57543;45.442;9.212;2023-08-24T07:17:57;16.95;;;11.75;;
70169;SDS011;57543;45.442;9.212;2023-08-24T07:21:00;19.95;;;12.10;;
70169;SDS011;57543;45.442;9.212;2023-08-24T07:24:04;20.75;;;12.63;;
70169;SDS011;57543;45.442;9.212;2023-08-24T07:27:08;16.23;;;11.65;;
70169;SDS011;57543;45.442;9.212;2023-08-24T07:30:12;16.58;;;11.38;;
70169;SDS011;57543;45.442;9.212;2023-08-24T07:33:16;15.98;;;11.25;;
70169;SDS011;57543;45.442;9.212;2023-08-24T07:36:20;15.05;;;10.95;;
70169;SDS011;57543;45.442;9.212;2023-08-24T07:39:24;18.35;;;12.07;;
70169;SDS011;57543;45.442;9.212;2023-08-24T07:42:27;17.93;;;13.07;;
70169;SDS011;57543;45.442;9.212;2023-08-24T07:45:31;16.25;;;11.40;;
70169;SDS011;57543;45.442;9.212;2023-08-24T07:48:34;19.83;;;11.13;;
70169;SDS011;57543;45.442;9.212;2023-08-24T07:51:38;21.58;;;10.63;;
70169;SDS011;57543;45.442;9.212;2023-08-24T07:54:42;16.05;;;10.70;;
70169;SDS011;57543;45.442;9.212;2023-08-24T07:57:47;13.50;;;9.40;;
70169;SDS011;57543;45.442;9.212;2023-08-24T08:00:52;13.77;;;9.68;;
70169;SDS011;57543;45.442;9.212;2023-08-24T08:03:55;12.68;;;9.63;;
70169;SDS011;57543;45.442;9.212;2023-08-24T08:06:59;13.88;;;9.55;;
70169;SDS011;57543;45.442;9.212;2023-08-24T08:10:03;12.88;;;9.23;;
70169;SDS011;57543;45.442;9.212;2023-08-24T08:13:08;14.57;;;9.90;;
70169;SDS011;57543;45.442;9.212;2023-08-24T08:16:14;21.17;;;10.13;;
70169;SDS011;57543;45.442;9.212;2023-08-24T08:19:18;15.60;;;10.07;;
70169;SDS011;57543;45.442;9.212;2023-08-24T08:22:23;13.13;;;9.75;;
70169;SDS011;57543;45.442;9.212;2023-08-24T08:25:27;13.98;;;10.07;;
70169;SDS011;57543;45.442;9.212;2023-08-24T08:28:31;16.40;;;10.65;;
70169;SDS011;57543;45.442;9.212;2023-08-24T08:31:38;16.92;;;10.82;;
70169;SDS011;57543;45.442;9.212;2023-08-24T08:34:43;16.80;;;11.27;;
70169;SDS011;57543;45.442;9.212;2023-08-24T08:37:47;15.20;;;10.40;;
70169;SDS011;57543;45.442;9.212;2023-08-24T08:40:56;15.35;;;10.68;;
70169;SDS011;57543;45.442;9.212;2023-08-24T08:44:05;15.68;;;9.80;;
70169;SDS011;57543;45.442;9.212;2023-08-24T08:47:10;15.20;;;10.30;;
70169;SDS011;57543;45.442;9.212;2023-08-24T08:50:15;13.82;;;10.60;;
70169;SDS011;57543;45.442;9.212;2023-08-24T08:53:20;16.17;;;10.38;;
70169;SDS011;57543;45.442;9.212;2023-08-24T08:56:25;16.40;;;11.10;;
70169;SDS011;57543;45.442;9.212;2023-08-24T08:59:30;14.93;;;11.32;;
70169;SDS011;57543;45.442;9.212;2023-08-24T09:02:34;17.52;;;10.88;;
70169;SDS011;57543;45.442;9.212;2023-08-24T09:05:38;17.15;;;11.02;;
70169;SDS011;57543;45.442;9.212;2023-08-24T09:08:43;15.48;;;11.02;;
70169;SDS011;57543;45.442;9.212;2023-08-24T09:11:48;13.13;;;9.77;;
70169;SDS011;57543;45.442;9.212;2023-08-24T09:14:52;12.70;;;9.27;;
70169;SDS011;57543;45.442;9.212;2023-08-24T09:17:55;12.02;;;8.82;;
70169;SDS011;57543;45.442;9.212;2023-08-24T09:20:59;12.77;;;9.93;;
70169;SDS011;57543;45.442;9.212;2023-08-24T09:24:03;14.40;;;10.05;;
70169;SDS011;57543;45.442;9.212;2023-08-24T09:27:15;15.82;;;10.25;;
70169;SDS011;57543;45.442;9.212;2023-08-24T09:30:19;15.93;;;9.90;;
70169;SDS011;57543;45.442;9.212;2023-08-24T09:33:23;12.73;;;9.80;;
70169;SDS011;57543;45.442;9.212;2023-08-24T09:36:32;13.82;;;9.55;;
70169;SDS011;57543;45.442;9.212;2023-08-24T09:39:39;14.68;;;9.95;;
70169;SDS011;57543;45.442;9.212;2023-08-24T09:42:43;14.68;;;10.40;;
70169;SDS011;57543;45.442;9.212;2023-08-24T09:45:56;11.53;;;9.53;;
70169;SDS011;57543;45.442;9.212;2023-08-24T09:49:00;13.82;;;10.43;;
70169;SDS011;57543;45.442;9.212;2023-08-24T09:52:06;12.93;;;8.77;;
70169;SDS011;57543;45.442;9.212;2023-08-24T09:55:10;11.82;;;9.13;;
70169;SDS011;57543;45.442;9.212;2023-08-24T09:58:15;12.18;;;8.38;;
70169;SDS011;57543;45.442;9.212;2023-08-24T10:01:19;12.70;;;7.70;;
70169;SDS011;57543;45.442;9.212;2023-08-24T10:04:24;12.00;;;8.23;;
70169;SDS011;57543;45.442;9.212;2023-08-24T10:07:29;11.10;;;8.65;;
70169;SDS011;57543;45.442;9.212;2023-08-24T10:10:34;11.23;;;8.98;;
70169;SDS011;57543;45.442;9.212;2023-08-24T10:13:41;18.50;;;10.10;;
70169;SDS011;57543;45.442;9.212;2023-08-24T10:16:53;13.27;;;9.23;;
70169;SDS011;57543;45.442;9.212;2023-08-24T10:19:58;11.15;;;8.27;;
70169;SDS011;57543;45.442;9.212;2023-08-24T10:23:10;11.50;;;8.30;;
70169;SDS011;57543;45.442;9.212;2023-08-24T10:26:16;13.60;;;8.88;;
70169;SDS011;57543;45.442;9.212;2023-08-24T10:29:20;11.00;;;9.00;;
70169;SDS011;57543;45.442;9.212;2023-08-24T10:32:24;12.90;;;9.32;;
70169;SDS011;57543;45.442;9.212;2023-08-24T10:35:28;14.60;;;10.18;;
70169;SDS011;57543;45.442;9.212;2023-08-24T10:38:34;13.40;;;9.70;;
70169;SDS011;57543;45.442;9.212;2023-08-24T10:41:49;12.20;;;9.00;;
70169;SDS011;57543;45.442;9.212;2023-08-24T10:44:56;11.38;;;8.85;;
70169;SDS011;57543;45.442;9.212;2023-08-24T10:48:00;12.90;;;9.27;;
70169;SDS011;57543;45.442;9.212;2023-08-24T10:54:18;12.93;;;9.40;;
70169;SDS011;57543;45.442;9.212;2023-08-24T10:57:37;18.10;;;10.50;;
70169;SDS011;57543;45.442;9.212;2023-08-24T11:00:41;12.63;;;9.80;;
70169;SDS011;57543;45.442;9.212;2023-08-24T11:03:54;14.75;;;9.55;;
70169;SDS011;57543;45.442;9.212;2023-08-24T11:06:59;18.08;;;10.48;;
70169;SDS011;57543;45.442;9.212;2023-08-24T11:10:12;13.68;;;9.57;;
70169;SDS011;57543;45.442;9.212;2023-08-24T11:13:16;14.82;;;9.55;;
70169;SDS011;57543;45.442;9.212;2023-08-24T11:16:38;13.57;;;9.32;;
70169;SDS011;57543;45.442;9.212;2023-08-24T11:19:49;13.75;;;9.40;;
70169;SDS011;57543;45.442;9.212;2023-08-24T11:22:57;14.13;;;9.45;;
70169;SDS011;57543;45.442;9.212;2023-08-24T11:26:01;15.98;;;9.27;;
70169;SDS011;57543;45.442;9.212;2023-08-24T11:29:05;14.52;;;8.40;;
70169;SDS011;57543;45.442;9.212;2023-08-24T11:32:09;12.98;;;8.45;;
70169;SDS011;57543;45.442;9.212;2023-08-24T11:35:13;14.90;;;8.48;;
70169;SDS011;57543;45.442;9.212;2023-08-24T11:38:17;15.10;;;8.77;;
70169;SDS011;57543;45.442;9.212;2023-08-24T11:41:20;15.13;;;8.48;;
70169;SDS011;57543;45.442;9.212;2023-08-24T11:44:27;10.70;;;8.02;;
70169;SDS011;57543;45.442;9.212;2023-08-24T11:47:31;10.57;;;7.50;;
70169;SDS011;57543;45.442;9.212;2023-08-24T11:50:37;12.30;;;8.70;;
70169;SDS011;57543;45.442;9.212;2023-08-24T11:53:41;13.63;;;8.18;;
70169;SDS011;57543;45.442;9.212;2023-08-24T11:56:46;12.73;;;7.78;;
70169;SDS011;57543;45.442;9.212;2023-08-24T11:59:50;8.50;;;7.25;;
70169;SDS011;57543;45.442;9.212;2023-08-24T12:02:54;13.85;;;7.78;;
70169;SDS011;57543;45.442;9.212;2023-08-24T12:06:01;12.30;;;7.43;;
70169;SDS011;57543;45.442;9.212;2023-08-24T12:09:07;9.40;;;7.18;;
70169;SDS011;57543;45.442;9.212;2023-08-24T12:12:17;11.63;;;7.45;;
70169;SDS011;57543;45.442;9.212;2023-08-24T12:15:22;10.20;;;7.97;;
70169;SDS011;57543;45.442;9.212;2023-08-24T12:18:26;11.18;;;7.65;;
70169;SDS011;57543;45.442;9.212;2023-08-24T12:21:30;12.10;;;7.50;;
70169;SDS011;57543;45.442;9.212;2023-08-24T12:24:33;13.13;;;7.78;;
70169;SDS011;57543;45.442;9.212;2023-08-24T12:27:37;11.95;;;7.68;;
70169;SDS011;57543;45.442;9.212;2023-08-24T12:30:51;9.90;;;6.85;;
70169;SDS011;57543;45.442;9.212;2023-08-24T12:34:03;8.90;;;6.95;;
70169;SDS011;57543;45.442;9.212;2023-08-24T12:37:06;11.20;;;7.50;;
70169;SDS011;57543;45.442;9.212;2023-08-24T12:40:10;15.00;;;8.13;;
70169;SDS011;57543;45.442;9.212;2023-08-24T12:43:14;9.43;;;7.47;;
70169;SDS011;57543;45.442;9.212;2023-08-24T12:46:18;10.02;;;7.60;;
70169;SDS011;57543;45.442;9.212;2023-08-24T12:49:22;11.80;;;7.38;;
70169;SDS011;57543;45.442;9.212;2023-08-24T12:52:26;10.13;;;7.47;;
70169;SDS011;57543;45.442;9.212;2023-08-24T12:55:30;9.98;;;7.53;;
70169;SDS011;57543;45.442;9.212;2023-08-24T12:58:34;13.00;;;8.05;;
70169;SDS011;57543;45.442;9.212;2023-08-24T13:01:37;14.35;;;7.00;;
70169;SDS011;57543;45.442;9.212;2023-08-24T13:04:41;11.98;;;7.15;;
70169;SDS011;57543;45.442;9.212;2023-08-24T13:07:45;13.17;;;7.07;;
70169;SDS011;57543;45.442;9.212;2023-08-24T13:10:49;11.15;;;7.05;;
70169;SDS011;57543;45.442;9.212;2023-08-24T13:13:54;9.05;;;7.43;;
70169;SDS011;57543;45.442;9.212;2023-08-24T13:16:58;10.77;;;7.05;;
70169;SDS011;57543;45.442;9.212;2023-08-24T13:20:02;11.65;;;7.13;;
70169;SDS011;57543;45.442;9.212;2023-08-24T13:23:06;11.20;;;6.97;;
70169;SDS011;57543;45.442;9.212;2023-08-24T13:26:16;9.65;;;6.25;;
70169;SDS011;57543;45.442;9.212;2023-08-24T13:29:22;11.05;;;6.75;;
70169;SDS011;57543;45.442;9.212;2023-08-24T13:32:26;13.55;;;7.03;;
70169;SDS011;57543;45.442;9.212;2023-08-24T13:35:30;9.43;;;6.45;;
70169;SDS011;57543;45.442;9.212;2023-08-24T13:38:34;11.40;;;7.03;;
70169;SDS011;57543;45.442;9.212;2023-08-24T13:41:37;11.80;;;7.10;;
70169;SDS011;57543;45.442;9.212;2023-08-24T13:44:44;13.65;;;6.72;;
70169;SDS011;57543;45.442;9.212;2023-08-24T13:47:49;11.35;;;6.50;;
70169;SDS011;57543;45.442;9.212;2023-08-24T13:50:53;14.23;;;7.05;;
70169;SDS011;57543;45.442;9.212;2023-08-24T13:53:57;10.87;;;6.93;;
70169;SDS011;57543;45.442;9.212;2023-08-24T13:57:01;11.55;;;7.60;;
70169;SDS011;57543;45.442;9.212;2023-08-24T14:00:05;11.38;;;7.45;;
70169;SDS011;57543;45.442;9.212;2023-08-24T14:03:15;10.48;;;6.68;;
70169;SDS011;57543;45.442;9.212;2023-08-24T14:06:18;10.25;;;7.32;;
70169;SDS011;57543;45.442;9.212;2023-08-24T14:09:22;9.07;;;7.20;;
70169;SDS011;57543;45.442;9.212;2023-08-24T14:12:26;10.90;;;7.13;;
70169;SDS011;57543;45.442;9.212;2023-08-24T14:15:29;12.00;;;6.55;;
70169;SDS011;57543;45.442;9.212;2023-08-24T14:18:33;11.23;;;6.50;;
70169;SDS011;57543;45.442;9.212;2023-08-24T14:21:39;10.23;;;6.82;;
70169;SDS011;57543;45.442;9.212;2023-08-24T14:24:47;9.47;;;7.07;;
70169;SDS011;57543;45.442;9.212;2023-08-24T14:27:51;12.88;;;7.90;;
70169;SDS011;57543;45.442;9.212;2023-08-24T14:30:54;8.68;;;6.90;;
70169;SDS011;57543;45.442;9.212;2023-08-24T14:33:57;10.82;;;6.90;;
70169;SDS011;57543;45.442;9.212;2023-08-24T14:37:01;11.35;;;7.32;;
70169;SDS011;57543;45.442;9.212;2023-08-24T14:40:05;10.37;;;7.17;;
70169;SDS011;57543;45.442;9.212;2023-08-24T14:43:09;10.80;;;7.28;;
70169;SDS011;57543;45.442;9.212;2023-08-24T14:46:13;10.85;;;6.93;;
70169;SDS011;57543;45.442;9.212;2023-08-24T14:49:17;9.05;;;6.85;;
70169;SDS011;57543;45.442;9.212;2023-08-24T14:52:22;12.27;;;7.15;;
70169;SDS011;57543;45.442;9.212;2023-08-24T14:55:26;10.93;;;7.40;;
70169;SDS011;57543;45.442;9.212;2023-08-24T14:58:30;13.57;;;7.50;;
70169;SDS011;57543;45.442;9.212;2023-08-24T15:01:36;11.48;;;7.43;;
70169;SDS011;57543;45.442;9.212;2023-08-24T15:04:40;11.50;;;7.50;;
70169;SDS011;57543;45.442;9.212;2023-08-24T15:07:43;9.93;;;7.40;;
70169;SDS011;57543;45.442;9.212;2023-08-24T15:10:50;11.67;;;7.33;;
70169;SDS011;57543;45.442;9.212;2023-08-24T15:13:57;11.60;;;7.40;;
70169;SDS011;57543;45.442;9.212;2023-08-24T15:17:01;13.35;;;7.35;;
70169;SDS011;57543;45.442;9.212;2023-08-24T15:20:05;12.20;;;7.60;;
70169;SDS011;57543;45.442;9.212;2023-08-24T15:23:09;14.68;;;8.10;;
70169;SDS011;57543;45.442;9.212;2023-08-24T15:26:14;10.77;;;7.00;;
70169;SDS011;57543;45.442;9.212;2023-08-24T15:29:17;9.45;;;7.05;;
70169;SDS011;57543;45.442;9.212;2023-08-24T15:32:21;13.07;;;8.00;;
70169;SDS011;57543;45.442;9.212;2023-08-24T15:35:25;10.43;;;7.63;;
70169;SDS011;57543;45.442;9.212;2023-08-24T15:38:29;11.10;;;7.60;;
70169;SDS011;57543;45.442;9.212;2023-08-24T15:41:33;12.53;;;7.23;;
70169;SDS011;57543;45.442;9.212;2023-08-24T15:44:37;9.70;;;7.88;;
70169;SDS011;57543;45.442;9.212;2023-08-24T15:47:40;12.50;;;7.57;;
70169;SDS011;57543;45.442;9.212;2023-08-24T15:50:44;11.38;;;7.70;;
70169;SDS011;57543;45.442;9.212;2023-08-24T15:53:48;11.15;;;7.60;;
70169;SDS011;57543;45.442;9.212;2023-08-24T15:56:52;12.23;;;7.73;;
70169;SDS011;57543;45.442;9.212;2023-08-24T15:59:57;13.95;;;7.72;;
70169;SDS011;57543;45.442;9.212;2023-08-24T16:03:00;9.98;;;7.63;;
70169;SDS011;57543;45.442;9.212;2023-08-24T16:06:04;14.25;;;8.18;;
70169;SDS011;57543;45.442;9.212;2023-08-24T16:09:11;11.68;;;7.40;;
70169;SDS011;57543;45.442;9.212;2023-08-24T16:12:18;15.63;;;8.23;;
70169;SDS011;57543;45.442;9.212;2023-08-24T16:15:21;11.75;;;7.47;;
70169;SDS011;57543;45.442;9.212;2023-08-24T16:18:25;11.55;;;7.57;;
70169;SDS011;57543;45.442;9.212;2023-08-24T16:21:29;11.68;;;7.60;;
70169;SDS011;57543;45.442;9.212;2023-08-24T16:24:33;13.18;;;7.47;;
70169;SDS011;57543;45.442;9.212;2023-08-24T16:27:37;10.50;;;7.70;;
70169;SDS011;57543;45.442;9.212;2023-08-24T16:30:41;15.05;;;7.70;;
70169;SDS011;57543;45.442;9.212;2023-08-24T16:33:50;12.13;;;7.38;;
70169;SDS011;57543;45.442;9.212;2023-08-24T16:36:53;12.88;;;7.10;;
70169;SDS011;57543;45.442;9.212;2023-08-24T16:39:57;11.23;;;7.22;;
70169;SDS011;57543;45.442;9.212;2023-08-24T16:43:00;14.07;;;7.73;;
70169;SDS011;57543;45.442;9.212;2023-08-24T16:46:04;15.80;;;7.80;;
70169;SDS011;57543;45.442;9.212;2023-08-24T16:49:08;11.20;;;7.50;;
70169;SDS011;57543;45.442;9.212;2023-08-24T16:52:11;10.60;;;7.70;;
70169;SDS011;57543;45.442;9.212;2023-08-24T16:55:18;10.38;;;7.35;;
70169;SDS011;57543;45.442;9.212;2023-08-24T16:58:23;12.55;;;7.53;;
70169;SDS011;57543;45.442;9.212;2023-08-24T17:01:26;12.27;;;7.18;;
70169;SDS011;57543;45.442;9.212;2023-08-24T17:04:30;9.05;;;7.40;;
70169;SDS011;57543;45.442;9.212;2023-08-24T17:07:37;13.45;;;8.10;;
70169;SDS011;57543;45.442;9.212;2023-08-24T17:10:45;12.10;;;8.18;;
70169;SDS011;57543;45.442;9.212;2023-08-24T17:13:48;10.47;;;7.53;;
70169;SDS011;57543;45.442;9.212;2023-08-24T17:16:54;10.80;;;8.20;;
70169;SDS011;57543;45.442;9.212;2023-08-24T17:19:57;9.98;;;7.10;;
70169;SDS011;57543;45.442;9.212;2023-08-24T17:23:01;15.20;;;7.78;;
70169;SDS011;57543;45.442;9.212;2023-08-24T17:26:06;12.55;;;7.32;;
70169;SDS011;57543;45.442;9.212;2023-08-24T17:29:10;11.73;;;7.80;;
70169;SDS011;57543;45.442;9.212;2023-08-24T17:32:14;13.18;;;7.53;;
70169;SDS011;57543;45.442;9.212;2023-08-24T17:35:18;13.43;;;7.80;;
70169;SDS011;57543;45.442;9.212;2023-08-24T17:38:21;13.23;;;7.18;;
70169;SDS011;57543;45.442;9.212;2023-08-24T17:41:25;12.40;;;7.90;;
70169;SDS011;57543;45.442;9.212;2023-08-24T17:44:29;15.13;;;8.07;;
70169;SDS011;57543;45.442;9.212;2023-08-24T17:47:33;12.60;;;8.00;;
70169;SDS011;57543;45.442;9.212;2023-08-24T17:50:38;11.15;;;7.70;;
70169;SDS011;57543;45.442;9.212;2023-08-24T17:53:41;14.20;;;8.40;;
70169;SDS011;57543;45.442;9.212;2023-08-24T17:56:47;13.68;;;7.80;;
70169;SDS011;57543;45.442;9.212;2023-08-24T17:59:51;11.13;;;7.80;;
70169;SDS011;57543;45.442;9.212;2023-08-24T18:02:54;12.35;;;7.88;;
70169;SDS011;57543;45.442;9.212;2023-08-24T18:05:57;10.68;;;7.70;;
70169;SDS011;57543;45.442;9.212;2023-08-24T18:09:02;13.48;;;8.20;;
70169;SDS011;57543;45.442;9.212;2023-08-24T18:12:13;12.27;;;8.35;;
70169;SDS011;57543;45.442;9.212;2023-08-24T18:15:16;12.63;;;9.27;;
70169;SDS011;57543;45.442;9.212;2023-08-24T18:18:20;11.52;;;8.20;;